sensor_id;sensor_type;location;lat;lon;timestamp;P1;durP1;ratioP1;P2;durP2;ratioP2
52468;SDS011;38381;53.688;10.776;2022-08-21T00:04:54;4.80;;;3.53;;
52468;SDS011;38381;53.688;10.776;2022-08-21T00:09:54;4.47;;;3.90;;
52468;SDS011;38381;53.688;10.776;2022-08-21T00:14:55;6.47;;;2.83;;
52468;SDS011;38381;53.688;10.776;2022-08-21T00:19:55;3.13;;;2.20;;
52468;SDS011;38381;53.688;10.776;2022-08-21T00:24:55;5.22;;;2.67;;
52468;SDS011;38381;53.688;10.776;2022-08-21T00:29:56;3.97;;;2.20;;
52468;SDS011;38381;53.688;10.776;2022-08-21T00:34:57;2.90;;;2.50;;
52468;SDS011;38381;53.688;10.776;2022-08-21T00:39:58;4.88;;;2.55;;
52468;SDS011;38381;53.688;10.776;2022-08-21T00:44:58;4.55;;;3.08;;
52468;SDS011;38381;53.688;10.776;2022-08-21T00:49:58;5.10;;;2.47;;
52468;SDS011;38381;53.688;10.776;2022-08-21T00:54:59;4.18;;;2.22;;
52468;SDS011;38381;53.688;10.776;2022-08-21T01:00:03;3.05;;;2.30;;
52468;SDS011;38381;53.688;10.776;2022-08-21T01:05:08;9.70;;;2.65;;
52468;SDS011;38381;53.688;10.776;2022-08-21T01:10:08;2.25;;;2.00;;
52468;SDS011;38381;53.688;10.776;2022-08-21T01:15:09;2.30;;;1.98;;
52468;SDS011;38381;53.688;10.776;2022-08-21T01:20:11;2.95;;;2.45;;
52468;SDS011;38381;53.688;10.776;2022-08-21T01:25:14;2.97;;;2.35;;
52468;SDS011;38381;53.688;10.776;2022-08-21T01:30:18;6.97;;;2.83;;
52468;SDS011;38381;53.688;10.776;2022-08-21T01:35:21;4.30;;;2.28;;
52468;SDS011;38381;53.688;10.776;2022-08-21T01:40:22;2.72;;;1.95;;
52468;SDS011;38381;53.688;10.776;2022-08-21T01:45:22;3.90;;;2.27;;
52468;SDS011;38381;53.688;10.776;2022-08-21T01:50:23;3.67;;;2.30;;
52468;SDS011;38381;53.688;10.776;2022-08-21T01:55:23;2.53;;;2.03;;
52468;SDS011;38381;53.688;10.776;2022-08-21T02:00:24;4.63;;;2.30;;
52468;SDS011;38381;53.688;10.776;2022-08-21T02:05:25;3.72;;;2.42;;
52468;SDS011;38381;53.688;10.776;2022-08-21T02:10:27;2.78;;;2.15;;
52468;SDS011;38381;53.688;10.776;2022-08-21T02:15:29;3.33;;;2.25;;
52468;SDS011;38381;53.688;10.776;2022-08-21T02:20:32;3.15;;;2.70;;
52468;SDS011;38381;53.688;10.776;2022-08-21T02:25:36;4.07;;;2.83;;
52468;SDS011;38381;53.688;10.776;2022-08-21T02:30:38;2.63;;;2.03;;
52468;SDS011;38381;53.688;10.776;2022-08-21T02:35:41;2.65;;;2.25;;
52468;SDS011;38381;53.688;10.776;2022-08-21T02:40:44;3.47;;;3.10;;
52468;SDS011;38381;53.688;10.776;2022-08-21T02:45:46;3.47;;;2.70;;
52468;SDS011;38381;53.688;10.776;2022-08-21T02:50:50;3.33;;;2.60;;
52468;SDS011;38381;53.688;10.776;2022-08-21T02:55:53;4.32;;;2.72;;
52468;SDS011;38381;53.688;10.776;2022-08-21T03:00:54;3.25;;;2.40;;
52468;SDS011;38381;53.688;10.776;2022-08-21T03:05:54;6.03;;;2.85;;
52468;SDS011;38381;53.688;10.776;2022-08-21T03:10:55;2.77;;;2.50;;
52468;SDS011;38381;53.688;10.776;2022-08-21T03:15:55;3.00;;;2.70;;
52468;SDS011;38381;53.688;10.776;2022-08-21T03:20:56;5.40;;;2.63;;
52468;SDS011;38381;53.688;10.776;2022-08-21T03:25:56;3.95;;;2.92;;
52468;SDS011;38381;53.688;10.776;2022-08-21T03:30:56;4.60;;;2.95;;
52468;SDS011;38381;53.688;10.776;2022-08-21T03:35:59;3.93;;;2.50;;
52468;SDS011;38381;53.688;10.776;2022-08-21T03:41:02;2.70;;;1.95;;
52468;SDS011;38381;53.688;10.776;2022-08-21T03:46:04;4.18;;;2.15;;
52468;SDS011;38381;53.688;10.776;2022-08-21T03:51:05;5.82;;;2.60;;
52468;SDS011;38381;53.688;10.776;2022-08-21T03:56:06;4.82;;;2.75;;
52468;SDS011;38381;53.688;10.776;2022-08-21T04:01:06;7.23;;;2.93;;
52468;SDS011;38381;53.688;10.776;2022-08-21T04:06:07;3.58;;;2.40;;
52468;SDS011;38381;53.688;10.776;2022-08-21T04:11:07;3.58;;;2.60;;
52468;SDS011;38381;53.688;10.776;2022-08-21T04:16:10;3.13;;;2.83;;
52468;SDS011;38381;53.688;10.776;2022-08-21T04:21:10;5.25;;;3.67;;
52468;SDS011;38381;53.688;10.776;2022-08-21T04:26:11;5.55;;;3.10;;
52468;SDS011;38381;53.688;10.776;2022-08-21T04:31:11;3.92;;;2.83;;
52468;SDS011;38381;53.688;10.776;2022-08-21T04:36:12;4.22;;;2.80;;
52468;SDS011;38381;53.688;10.776;2022-08-21T04:41:12;3.85;;;2.60;;
52468;SDS011;38381;53.688;10.776;2022-08-21T04:46:12;3.87;;;2.90;;
52468;SDS011;38381;53.688;10.776;2022-08-21T04:51:15;5.43;;;3.05;;
52468;SDS011;38381;53.688;10.776;2022-08-21T04:56:23;3.13;;;2.78;;
52468;SDS011;38381;53.688;10.776;2022-08-21T05:01:32;6.20;;;3.00;;
52468;SDS011;38381;53.688;10.776;2022-08-21T05:06:36;3.92;;;2.55;;
52468;SDS011;38381;53.688;10.776;2022-08-21T05:11:39;3.42;;;3.13;;
52468;SDS011;38381;53.688;10.776;2022-08-21T05:16:40;9.07;;;3.42;;
52468;SDS011;38381;53.688;10.776;2022-08-21T05:21:43;4.25;;;3.85;;
52468;SDS011;38381;53.688;10.776;2022-08-21T05:26:44;3.22;;;2.92;;
52468;SDS011;38381;53.688;10.776;2022-08-21T05:31:46;3.90;;;3.58;;
52468;SDS011;38381;53.688;10.776;2022-08-21T05:36:47;5.18;;;3.83;;
52468;SDS011;38381;53.688;10.776;2022-08-21T05:41:48;5.32;;;3.47;;
52468;SDS011;38381;53.688;10.776;2022-08-21T05:46:49;7.22;;;4.32;;
52468;SDS011;38381;53.688;10.776;2022-08-21T05:51:49;3.88;;;3.45;;
52468;SDS011;38381;53.688;10.776;2022-08-21T05:56:49;6.30;;;4.47;;
52468;SDS011;38381;53.688;10.776;2022-08-21T06:01:49;6.95;;;4.15;;
52468;SDS011;38381;53.688;10.776;2022-08-21T06:11:52;5.55;;;3.80;;
52468;SDS011;38381;53.688;10.776;2022-08-21T06:16:53;4.32;;;3.55;;
52468;SDS011;38381;53.688;10.776;2022-08-21T06:21:53;6.40;;;3.75;;
52468;SDS011;38381;53.688;10.776;2022-08-21T06:26:53;5.50;;;4.38;;
52468;SDS011;38381;53.688;10.776;2022-08-21T06:31:54;7.63;;;3.80;;
52468;SDS011;38381;53.688;10.776;2022-08-21T06:36:54;6.13;;;4.43;;
52468;SDS011;38381;53.688;10.776;2022-08-21T06:41:54;6.28;;;4.32;;
52468;SDS011;38381;53.688;10.776;2022-08-21T06:46:55;7.13;;;3.53;;
52468;SDS011;38381;53.688;10.776;2022-08-21T06:51:55;3.90;;;3.20;;
52468;SDS011;38381;53.688;10.776;2022-08-21T06:56:55;4.43;;;3.50;;
52468;SDS011;38381;53.688;10.776;2022-08-21T07:01:56;9.25;;;3.13;;
52468;SDS011;38381;53.688;10.776;2022-08-21T07:06:56;7.80;;;3.38;;
52468;SDS011;38381;53.688;10.776;2022-08-21T07:11:56;6.10;;;3.42;;
52468;SDS011;38381;53.688;10.776;2022-08-21T07:16:57;4.18;;;2.92;;
52468;SDS011;38381;53.688;10.776;2022-08-21T07:21:58;4.80;;;3.10;;
52468;SDS011;38381;53.688;10.776;2022-08-21T07:27:01;6.93;;;3.35;;
52468;SDS011;38381;53.688;10.776;2022-08-21T07:32:01;6.00;;;2.93;;
52468;SDS011;38381;53.688;10.776;2022-08-21T07:37:02;3.03;;;2.50;;
52468;SDS011;38381;53.688;10.776;2022-08-21T07:42:02;3.72;;;2.72;;
52468;SDS011;38381;53.688;10.776;2022-08-21T07:47:03;5.47;;;2.40;;
52468;SDS011;38381;53.688;10.776;2022-08-21T07:52:03;5.45;;;2.60;;
52468;SDS011;38381;53.688;10.776;2022-08-21T07:57:04;5.72;;;2.78;;
52468;SDS011;38381;53.688;10.776;2022-08-21T08:02:04;3.80;;;2.25;;
52468;SDS011;38381;53.688;10.776;2022-08-21T08:07:05;2.95;;;1.98;;
52468;SDS011;38381;53.688;10.776;2022-08-21T08:12:05;4.10;;;1.85;;
52468;SDS011;38381;53.688;10.776;2022-08-21T08:17:06;2.88;;;2.10;;
52468;SDS011;38381;53.688;10.776;2022-08-21T08:22:13;3.47;;;1.80;;
52468;SDS011;38381;53.688;10.776;2022-08-21T08:32:19;3.13;;;2.00;;
52468;SDS011;38381;53.688;10.776;2022-08-21T08:37:20;3.78;;;2.13;;
52468;SDS011;38381;53.688;10.776;2022-08-21T08:42:28;3.13;;;1.98;;
52468;SDS011;38381;53.688;10.776;2022-08-21T08:47:32;4.03;;;2.33;;
52468;SDS011;38381;53.688;10.776;2022-08-21T08:52:37;4.15;;;2.20;;
52468;SDS011;38381;53.688;10.776;2022-08-21T08:57:44;3.03;;;1.90;;
52468;SDS011;38381;53.688;10.776;2022-08-21T09:02:47;8.43;;;2.38;;
52468;SDS011;38381;53.688;10.776;2022-08-21T09:07:53;3.05;;;2.08;;
52468;SDS011;38381;53.688;10.776;2022-08-21T09:29:39;9.80;;;2.47;;
52468;SDS011;38381;53.688;10.776;2022-08-21T09:34:42;3.35;;;1.95;;
52468;SDS011;38381;53.688;10.776;2022-08-21T09:39:42;6.13;;;2.47;;
52468;SDS011;38381;53.688;10.776;2022-08-21T09:44:43;7.20;;;2.03;;
52468;SDS011;38381;53.688;10.776;2022-08-21T09:49:44;2.50;;;1.87;;
52468;SDS011;38381;53.688;10.776;2022-08-21T09:54:45;2.63;;;1.73;;
52468;SDS011;38381;53.688;10.776;2022-08-21T09:59:46;3.57;;;2.13;;
52468;SDS011;38381;53.688;10.776;2022-08-21T10:04:51;5.72;;;1.92;;
52468;SDS011;38381;53.688;10.776;2022-08-21T10:10:28;2.65;;;2.00;;
52468;SDS011;38381;53.688;10.776;2022-08-21T10:15:38;6.57;;;1.85;;
52468;SDS011;38381;53.688;10.776;2022-08-21T10:26:06;3.17;;;2.17;;
52468;SDS011;38381;53.688;10.776;2022-08-21T10:42:11;4.50;;;2.28;;
52468;SDS011;38381;53.688;10.776;2022-08-21T10:47:38;3.17;;;1.65;;
52468;SDS011;38381;53.688;10.776;2022-08-21T10:53:05;4.40;;;2.50;;
52468;SDS011;38381;53.688;10.776;2022-08-21T10:58:22;8.20;;;2.72;;
52468;SDS011;38381;53.688;10.776;2022-08-21T11:03:41;6.90;;;2.63;;
52468;SDS011;38381;53.688;10.776;2022-08-21T11:08:45;8.63;;;2.33;;
52468;SDS011;38381;53.688;10.776;2022-08-21T11:19:00;4.47;;;2.38;;
52468;SDS011;38381;53.688;10.776;2022-08-21T11:29:24;8.45;;;2.15;;
52468;SDS011;38381;53.688;10.776;2022-08-21T11:50:26;5.78;;;2.03;;
52468;SDS011;38381;53.688;10.776;2022-08-21T12:00:44;7.57;;;2.80;;
52468;SDS011;38381;53.688;10.776;2022-08-21T12:05:55;3.70;;;2.38;;
52468;SDS011;38381;53.688;10.776;2022-08-21T12:21:26;5.45;;;1.83;;
52468;SDS011;38381;53.688;10.776;2022-08-21T12:26:32;2.83;;;1.90;;
52468;SDS011;38381;53.688;10.776;2022-08-21T12:31:51;4.20;;;2.17;;
52468;SDS011;38381;53.688;10.776;2022-08-21T12:36:59;4.38;;;2.25;;
52468;SDS011;38381;53.688;10.776;2022-08-21T12:42:06;5.18;;;2.40;;
52468;SDS011;38381;53.688;10.776;2022-08-21T12:47:26;3.13;;;2.00;;
52468;SDS011;38381;53.688;10.776;2022-08-21T12:57:53;3.38;;;2.40;;
52468;SDS011;38381;53.688;10.776;2022-08-21T13:02:54;5.30;;;2.23;;
52468;SDS011;38381;53.688;10.776;2022-08-21T13:07:56;2.72;;;2.15;;
52468;SDS011;38381;53.688;10.776;2022-08-21T13:12:57;7.10;;;2.47;;
52468;SDS011;38381;53.688;10.776;2022-08-21T13:18:02;4.13;;;2.30;;
52468;SDS011;38381;53.688;10.776;2022-08-21T13:23:06;4.30;;;2.05;;
52468;SDS011;38381;53.688;10.776;2022-08-21T13:33:16;2.33;;;1.95;;
52468;SDS011;38381;53.688;10.776;2022-08-21T13:38:20;2.20;;;1.60;;
52468;SDS011;38381;53.688;10.776;2022-08-21T13:43:30;4.18;;;2.05;;
52468;SDS011;38381;53.688;10.776;2022-08-21T13:48:33;2.65;;;2.25;;
52468;SDS011;38381;53.688;10.776;2022-08-21T13:53:36;2.92;;;2.15;;
52468;SDS011;38381;53.688;10.776;2022-08-21T13:58:46;3.03;;;2.17;;
52468;SDS011;38381;53.688;10.776;2022-08-21T14:03:47;4.27;;;2.00;;
52468;SDS011;38381;53.688;10.776;2022-08-21T14:08:58;4.90;;;1.83;;
52468;SDS011;38381;53.688;10.776;2022-08-21T14:14:02;3.53;;;2.20;;
52468;SDS011;38381;53.688;10.776;2022-08-21T14:19:24;2.55;;;1.60;;
52468;SDS011;38381;53.688;10.776;2022-08-21T14:24:28;3.35;;;1.50;;
52468;SDS011;38381;53.688;10.776;2022-08-21T14:29:37;2.30;;;1.13;;
52468;SDS011;38381;53.688;10.776;2022-08-21T14:34:39;4.00;;;1.80;;
52468;SDS011;38381;53.688;10.776;2022-08-21T14:39:43;3.13;;;1.97;;
52468;SDS011;38381;53.688;10.776;2022-08-21T14:44:43;2.55;;;1.73;;
52468;SDS011;38381;53.688;10.776;2022-08-21T14:49:44;2.67;;;1.53;;
52468;SDS011;38381;53.688;10.776;2022-08-21T14:54:44;2.58;;;1.75;;
52468;SDS011;38381;53.688;10.776;2022-08-21T14:59:44;3.00;;;1.70;;
52468;SDS011;38381;53.688;10.776;2022-08-21T15:04:45;3.73;;;1.77;;
52468;SDS011;38381;53.688;10.776;2022-08-21T15:09:45;3.38;;;1.50;;
52468;SDS011;38381;53.688;10.776;2022-08-21T15:14:45;2.00;;;1.60;;
52468;SDS011;38381;53.688;10.776;2022-08-21T15:19:46;2.55;;;1.67;;
52468;SDS011;38381;53.688;10.776;2022-08-21T15:24:46;3.83;;;1.77;;
52468;SDS011;38381;53.688;10.776;2022-08-21T15:29:46;3.00;;;1.52;;
52468;SDS011;38381;53.688;10.776;2022-08-21T15:34:47;3.67;;;1.70;;
52468;SDS011;38381;53.688;10.776;2022-08-21T15:39:48;3.97;;;1.67;;
52468;SDS011;38381;53.688;10.776;2022-08-21T15:44:52;4.03;;;1.70;;
52468;SDS011;38381;53.688;10.776;2022-08-21T15:49:53;2.83;;;1.55;;
52468;SDS011;38381;53.688;10.776;2022-08-21T15:54:54;4.32;;;1.48;;
52468;SDS011;38381;53.688;10.776;2022-08-21T15:59:56;1.77;;;1.40;;
52468;SDS011;38381;53.688;10.776;2022-08-21T16:04:58;3.88;;;1.83;;
52468;SDS011;38381;53.688;10.776;2022-08-21T16:09:59;3.00;;;1.30;;
52468;SDS011;38381;53.688;10.776;2022-08-21T16:15:00;2.03;;;1.40;;
52468;SDS011;38381;53.688;10.776;2022-08-21T16:20:03;2.63;;;1.73;;
52468;SDS011;38381;53.688;10.776;2022-08-21T16:25:07;3.05;;;2.00;;
52468;SDS011;38381;53.688;10.776;2022-08-21T16:30:08;2.83;;;1.60;;
52468;SDS011;38381;53.688;10.776;2022-08-21T16:35:10;2.37;;;1.73;;
52468;SDS011;38381;53.688;10.776;2022-08-21T16:40:12;1.30;;;1.20;;
52468;SDS011;38381;53.688;10.776;2022-08-21T16:45:14;2.03;;;1.60;;
52468;SDS011;38381;53.688;10.776;2022-08-21T16:50:18;1.50;;;1.40;;
52468;SDS011;38381;53.688;10.776;2022-08-21T16:55:21;3.10;;;1.30;;
52468;SDS011;38381;53.688;10.776;2022-08-21T17:00:21;4.43;;;1.35;;
52468;SDS011;38381;53.688;10.776;2022-08-21T17:05:21;1.90;;;1.37;;
52468;SDS011;38381;53.688;10.776;2022-08-21T17:10:22;1.63;;;1.47;;
52468;SDS011;38381;53.688;10.776;2022-08-21T17:15:32;1.73;;;1.13;;
52468;SDS011;38381;53.688;10.776;2022-08-21T17:20:35;2.95;;;1.25;;
52468;SDS011;38381;53.688;10.776;2022-08-21T17:25:37;1.60;;;1.10;;
52468;SDS011;38381;53.688;10.776;2022-08-21T17:30:39;1.48;;;1.23;;
52468;SDS011;38381;53.688;10.776;2022-08-21T17:35:44;2.08;;;1.50;;
52468;SDS011;38381;53.688;10.776;2022-08-21T17:40:46;1.90;;;1.10;;
52468;SDS011;38381;53.688;10.776;2022-08-21T17:45:47;2.13;;;1.08;;
52468;SDS011;38381;53.688;10.776;2022-08-21T17:50:47;1.30;;;1.00;;
52468;SDS011;38381;53.688;10.776;2022-08-21T17:55:48;2.38;;;1.20;;
52468;SDS011;38381;53.688;10.776;2022-08-21T18:00:49;1.75;;;1.25;;
52468;SDS011;38381;53.688;10.776;2022-08-21T18:05:50;2.80;;;1.30;;
52468;SDS011;38381;53.688;10.776;2022-08-21T18:10:54;2.80;;;1.58;;
52468;SDS011;38381;53.688;10.776;2022-08-21T18:15:54;3.10;;;1.05;;
52468;SDS011;38381;53.688;10.776;2022-08-21T18:25:57;2.90;;;1.55;;
52468;SDS011;38381;53.688;10.776;2022-08-21T18:30:57;1.60;;;1.50;;
52468;SDS011;38381;53.688;10.776;2022-08-21T18:35:58;2.30;;;1.50;;
52468;SDS011;38381;53.688;10.776;2022-08-21T18:40:59;3.20;;;1.40;;
52468;SDS011;38381;53.688;10.776;2022-08-21T18:45:59;2.37;;;1.50;;
52468;SDS011;38381;53.688;10.776;2022-08-21T18:51:01;2.28;;;1.42;;
52468;SDS011;38381;53.688;10.776;2022-08-21T18:56:01;1.85;;;1.08;;
52468;SDS011;38381;53.688;10.776;2022-08-21T19:01:03;1.53;;;1.23;;
52468;SDS011;38381;53.688;10.776;2022-08-21T19:06:03;4.70;;;2.40;;
52468;SDS011;38381;53.688;10.776;2022-08-21T19:11:04;4.15;;;1.40;;
52468;SDS011;38381;53.688;10.776;2022-08-21T19:16:05;2.47;;;1.85;;
52468;SDS011;38381;53.688;10.776;2022-08-21T19:21:06;2.20;;;1.67;;
52468;SDS011;38381;53.688;10.776;2022-08-21T19:26:06;3.65;;;1.60;;
52468;SDS011;38381;53.688;10.776;2022-08-21T19:31:15;5.23;;;1.43;;
52468;SDS011;38381;53.688;10.776;2022-08-21T19:36:38;2.15;;;1.70;;
52468;SDS011;38381;53.688;10.776;2022-08-21T19:41:40;3.08;;;1.80;;
52468;SDS011;38381;53.688;10.776;2022-08-21T19:46:44;2.30;;;1.52;;
52468;SDS011;38381;53.688;10.776;2022-08-21T19:51:45;2.20;;;1.57;;
52468;SDS011;38381;53.688;10.776;2022-08-21T19:56:46;3.50;;;1.45;;
52468;SDS011;38381;53.688;10.776;2022-08-21T20:01:47;2.27;;;1.43;;
52468;SDS011;38381;53.688;10.776;2022-08-21T20:06:48;2.00;;;1.40;;
52468;SDS011;38381;53.688;10.776;2022-08-21T20:11:52;4.30;;;1.70;;
52468;SDS011;38381;53.688;10.776;2022-08-21T20:16:54;4.53;;;1.92;;
52468;SDS011;38381;53.688;10.776;2022-08-21T20:21:59;2.22;;;1.50;;
52468;SDS011;38381;53.688;10.776;2022-08-21T20:27:01;6.25;;;1.65;;
52468;SDS011;38381;53.688;10.776;2022-08-21T20:32:03;2.65;;;1.63;;
52468;SDS011;38381;53.688;10.776;2022-08-21T20:37:04;2.33;;;1.20;;
52468;SDS011;38381;53.688;10.776;2022-08-21T20:42:05;3.97;;;2.05;;
52468;SDS011;38381;53.688;10.776;2022-08-21T20:47:05;2.55;;;1.73;;
52468;SDS011;38381;53.688;10.776;2022-08-21T20:52:07;2.90;;;1.50;;
52468;SDS011;38381;53.688;10.776;2022-08-21T20:57:12;5.28;;;2.03;;
52468;SDS011;38381;53.688;10.776;2022-08-21T21:07:51;1.67;;;1.58;;
52468;SDS011;38381;53.688;10.776;2022-08-21T21:13:10;3.50;;;2.65;;
52468;SDS011;38381;53.688;10.776;2022-08-21T21:18:28;2.78;;;1.73;;
52468;SDS011;38381;53.688;10.776;2022-08-21T21:23:38;3.97;;;2.38;;
52468;SDS011;38381;53.688;10.776;2022-08-21T21:33:55;4.18;;;2.28;;
52468;SDS011;38381;53.688;10.776;2022-08-21T21:54:52;3.83;;;1.67;;
52468;SDS011;38381;53.688;10.776;2022-08-21T22:05:25;2.55;;;1.95;;
52468;SDS011;38381;53.688;10.776;2022-08-21T22:10:42;2.83;;;1.95;;
52468;SDS011;38381;53.688;10.776;2022-08-21T22:15:50;2.83;;;2.13;;
52468;SDS011;38381;53.688;10.776;2022-08-21T22:20:52;5.03;;;2.13;;
52468;SDS011;38381;53.688;10.776;2022-08-21T22:26:19;5.50;;;2.35;;
52468;SDS011;38381;53.688;10.776;2022-08-21T22:31:25;3.55;;;2.00;;
52468;SDS011;38381;53.688;10.776;2022-08-21T22:36:31;4.35;;;2.63;;
52468;SDS011;38381;53.688;10.776;2022-08-21T22:41:37;2.83;;;1.95;;
52468;SDS011;38381;53.688;10.776;2022-08-21T22:46:44;5.57;;;2.72;;
52468;SDS011;38381;53.688;10.776;2022-08-21T22:51:48;4.25;;;2.40;;
52468;SDS011;38381;53.688;10.776;2022-08-21T22:56:56;2.67;;;2.10;;
52468;SDS011;38381;53.688;10.776;2022-08-21T23:02:03;4.07;;;2.05;;
52468;SDS011;38381;53.688;10.776;2022-08-21T23:07:07;6.63;;;2.08;;
52468;SDS011;38381;53.688;10.776;2022-08-21T23:12:23;4.17;;;2.63;;
52468;SDS011;38381;53.688;10.776;2022-08-21T23:17:30;5.88;;;2.25;;
52468;SDS011;38381;53.688;10.776;2022-08-21T23:38:14;2.50;;;2.03;;
52468;SDS011;38381;53.688;10.776;2022-08-21T23:54:12;3.35;;;2.25;;
52468;SDS011;38381;53.688;10.776;2022-08-21T23:59:21;8.50;;;2.10;;
